Time;durP1;ratioP1;P1;durP2;ratioP2;P2;SDS_P1;SDS_P2;PMS_P1;PMS_P2;Temp;Humidity;BMP_temperature;BMP_pressure;BME280_temperature;BME280_humidity;BME280_pressure;Samples;Min_cycle;Max_cycle;Signal;HPM_P1;HPM_P2
2021/05/27 00:02:08;;;;;;;3.53;1.15;;;;;;;;;;4915838;29;20102;-63
2021/05/27 00:04:34;;;;;;;4.90;1.50;;;;;;;;;;4899175;29;20036;-62
2021/05/27 00:07:00;;;;;;;5.35;1.70;;;;;;;;;;4917998;29;20047;-64
2021/05/27 00:09:26;;;;;;;6.68;2.08;;;;;;;;;;4917835;29;20043;-64
2021/05/27 00:11:53;;;;;;;4.22;1.52;;;;;;;;;;4919213;29;20071;-64
2021/05/27 00:14:19;;;;;;;5.57;1.52;;;;;;;;;;4917656;29;20119;-63
2021/05/27 00:16:45;;;;;;;6.38;1.48;;;;;;;;;;4917804;29;20558;-63
2021/05/27 00:19:11;;;;;;;4.38;1.52;;;;;;;;;;4910355;29;20043;-63
2021/05/27 00:21:37;;;;;;;3.63;1.17;;;;;;;;;;4910816;29;20044;-62
2021/05/27 00:24:03;;;;;;;3.97;1.40;;;;;;;;;;4916091;29;20051;-63
2021/05/27 00:26:29;;;;;;;3.80;1.08;;;;;;;;;;4912189;29;20074;-63
2021/05/27 00:28:55;;;;;;;4.47;1.23;;;;;;;;;;4909748;29;20043;-63
2021/05/27 00:31:21;;;;;;;3.78;1.10;;;;;;;;;;4913610;29;20179;-62
2021/05/27 00:33:47;;;;;;;5.47;1.10;;;;;;;;;;4915143;29;20675;-63
2021/05/27 00:36:12;;;;;;;7.18;2.55;;;;;;;;;;4916750;29;20581;-63
2021/05/27 00:38:38;;;;;;;8.55;1.52;;;;;;;;;;4918611;29;20067;-64
2021/05/27 00:41:04;;;;;;;4.65;1.33;;;;;;;;;;4915807;29;20203;-64
2021/05/27 00:43:30;;;;;;;6.85;1.95;;;;;;;;;;4915027;29;20047;-63
2021/05/27 00:45:56;;;;;;;4.65;1.30;;;;;;;;;;4916960;29;20056;-63
2021/05/27 00:51:06;;;;;;;5.25;1.52;;;;;;;;;;4916395;29;20173;-64
2021/05/27 00:53:32;;;;;;;2.90;0.85;;;;;;;;;;4916545;29;20044;-64
2021/05/27 00:55:58;;;;;;;6.57;1.00;;;;;;;;;;4915626;29;20052;-64
2021/05/27 00:58:24;;;;;;;7.50;1.20;;;;;;;;;;4914889;29;20039;-63
2021/05/27 01:00:50;;;;;;;3.72;1.00;;;;;;;;;;4915967;29;20044;-64
2021/05/27 01:03:17;;;;;;;8.80;1.98;;;;;;;;;;4917460;29;20111;-64
2021/05/27 01:05:43;;;;;;;8.50;1.58;;;;;;;;;;4916529;29;20039;-62
2021/05/27 01:08:09;;;;;;;4.53;1.48;;;;;;;;;;4915300;29;20043;-62
2021/05/27 01:10:35;;;;;;;10.32;1.90;;;;;;;;;;4915275;29;20075;-63
2021/05/27 01:13:01;;;;;;;6.57;1.45;;;;;;;;;;4912363;29;20050;-62
2021/05/27 01:15:34;;;;;;;3.78;1.48;;;;;;;;;;4893546;29;20055;-62
2021/05/27 01:18:09;;;;;;;6.32;1.52;;;;;;;;;;4916821;29;20127;-62
2021/05/27 01:20:35;;;;;;;5.22;1.40;;;;;;;;;;4914777;29;20040;-62
2021/05/27 01:23:01;;;;;;;3.22;1.35;;;;;;;;;;4915990;29;20055;-62
2021/05/27 01:25:27;;;;;;;7.15;2.30;;;;;;;;;;4915142;29;20036;-63
2021/05/27 01:27:53;;;;;;;4.40;1.60;;;;;;;;;;4917084;29;20633;-63
2021/05/27 01:30:19;;;;;;;4.28;1.50;;;;;;;;;;4916636;29;20052;-63
2021/05/27 01:32:45;;;;;;;7.60;1.40;;;;;;;;;;4916583;29;20083;-63
2021/05/27 01:35:18;;;;;;;4.63;1.73;;;;;;;;;;4915609;29;20043;-63
2021/05/27 01:37:44;;;;;;;4.07;1.55;;;;;;;;;;4915938;29;20052;-62
2021/05/27 01:40:11;;;;;;;6.00;1.42;;;;;;;;;;4915860;29;20043;-63
2021/05/27 01:42:37;;;;;;;4.47;1.33;;;;;;;;;;4915357;29;20069;-63
2021/05/27 01:45:04;;;;;;;5.18;1.30;;;;;;;;;;4916709;29;20491;-63
2021/05/27 01:47:30;;;;;;;6.07;1.40;;;;;;;;;;4916863;29;20082;-63
2021/05/27 01:49:56;;;;;;;5.35;1.38;;;;;;;;;;4915820;29;20118;-63
2021/05/27 01:52:22;;;;;;;4.03;1.20;;;;;;;;;;4913166;29;20039;-62
2021/05/27 01:54:47;;;;;;;7.72;1.50;;;;;;;;;;4914321;29;20058;-64
2021/05/27 01:57:14;;;;;;;5.60;1.50;;;;;;;;;;4916868;29;20122;-63
2021/05/27 01:59:40;;;;;;;5.03;1.20;;;;;;;;;;4914935;29;20040;-64
2021/05/27 02:02:05;;;;;;;6.28;1.50;;;;;;;;;;4915142;29;20164;-62
2021/05/27 02:04:31;;;;;;;4.03;1.20;;;;;;;;;;4915987;29;20040;-63
2021/05/27 02:06:57;;;;;;;8.57;1.67;;;;;;;;;;4914636;29;20079;-62
2021/05/27 02:09:23;;;;;;;4.70;1.30;;;;;;;;;;4914453;29;20138;-63
2021/05/27 02:11:49;;;;;;;4.40;1.70;;;;;;;;;;4914474;29;20067;-63
2021/05/27 02:14:16;;;;;;;8.32;1.60;;;;;;;;;;4892999;29;20047;-65
2021/05/27 02:16:42;;;;;;;5.50;1.60;;;;;;;;;;4915967;29;20035;-63
2021/05/27 02:19:09;;;;;;;7.82;2.25;;;;;;;;;;4916835;29;20058;-63
2021/05/27 02:21:35;;;;;;;4.43;1.38;;;;;;;;;;4914599;29;20044;-61
2021/05/27 02:24:02;;;;;;;5.28;1.42;;;;;;;;;;4916517;29;20071;-62
2021/05/27 02:26:29;;;;;;;6.10;1.27;;;;;;;;;;4913598;29;20529;-62
2021/05/27 02:28:55;;;;;;;5.75;1.58;;;;;;;;;;4912465;29;20040;-63
2021/05/27 02:31:21;;;;;;;3.28;1.33;;;;;;;;;;4912769;29;20055;-62
2021/05/27 02:33:47;;;;;;;4.20;1.30;;;;;;;;;;4914737;29;20044;-63
2021/05/27 02:36:13;;;;;;;4.32;1.15;;;;;;;;;;4914076;29;20090;-62
2021/05/27 02:38:39;;;;;;;7.25;1.60;;;;;;;;;;4911986;29;20050;-63
2021/05/27 02:41:05;;;;;;;3.63;1.40;;;;;;;;;;4914966;29;20047;-64
2021/05/27 02:43:32;;;;;;;3.08;1.30;;;;;;;;;;4912368;29;20044;-61
2021/05/27 02:45:59;;;;;;;3.25;1.30;;;;;;;;;;4915675;29;20063;-65
2021/05/27 02:48:25;;;;;;;4.43;1.98;;;;;;;;;;4908325;28;20167;-63
2021/05/27 02:50:50;;;;;;;5.18;1.40;;;;;;;;;;4914563;29;20052;-63
2021/05/27 02:53:16;;;;;;;7.68;1.70;;;;;;;;;;4912008;29;20035;-62
2021/05/27 02:55:43;;;;;;;3.65;1.27;;;;;;;;;;4897710;29;20517;-64
2021/05/27 02:58:09;;;;;;;8.85;1.70;;;;;;;;;;4914807;29;20058;-62
2021/05/27 03:00:35;;;;;;;3.80;1.63;;;;;;;;;;4914802;29;20040;-64
2021/05/27 03:03:01;;;;;;;3.80;1.52;;;;;;;;;;4914299;29;20039;-61
2021/05/27 03:05:26;;;;;;;5.88;1.75;;;;;;;;;;4915357;29;20772;-63
2021/05/27 03:07:52;;;;;;;5.20;1.90;;;;;;;;;;4915114;29;20048;-63
2021/05/27 03:10:18;;;;;;;3.55;1.70;;;;;;;;;;4912737;29;20075;-62
2021/05/27 03:12:44;;;;;;;3.50;1.77;;;;;;;;;;4912082;29;20043;-62
2021/05/27 03:15:10;;;;;;;4.38;1.90;;;;;;;;;;4914025;29;20050;-62
2021/05/27 03:17:36;;;;;;;4.95;1.63;;;;;;;;;;4913442;29;20150;-62
2021/05/27 03:20:03;;;;;;;6.18;1.63;;;;;;;;;;4914400;29;20053;-61
2021/05/27 03:22:28;;;;;;;3.60;1.60;;;;;;;;;;4913135;29;20040;-63
2021/05/27 03:24:54;;;;;;;4.03;1.60;;;;;;;;;;4915159;29;20047;-61
2021/05/27 03:27:20;;;;;;;3.70;1.60;;;;;;;;;;4912024;29;20507;-63
2021/05/27 03:29:46;;;;;;;4.10;1.55;;;;;;;;;;4910657;29;20047;-62
2021/05/27 03:32:12;;;;;;;3.63;1.48;;;;;;;;;;4911984;29;20063;-62
2021/05/27 03:34:38;;;;;;;10.20;2.20;;;;;;;;;;4912258;29;20510;-62
2021/05/27 03:37:04;;;;;;;5.63;1.80;;;;;;;;;;4914932;29;20058;-62
2021/05/27 03:39:30;;;;;;;6.45;1.77;;;;;;;;;;4914316;29;20036;-62
2021/05/27 03:41:56;;;;;;;6.15;2.17;;;;;;;;;;4915026;29;20538;-61
2021/05/27 03:44:21;;;;;;;7.80;1.80;;;;;;;;;;4912861;29;20047;-63
2021/05/27 03:46:47;;;;;;;4.25;2.10;;;;;;;;;;4911689;29;20108;-62
2021/05/27 03:49:21;;;;;;;4.10;1.92;;;;;;;;;;4911458;29;20046;-63
2021/05/27 03:51:53;;;;;;;4.30;1.80;;;;;;;;;;4885384;29;20048;-63
2021/05/27 03:54:21;;;;;;;7.82;1.77;;;;;;;;;;4908938;29;20070;-61
2021/05/27 03:56:47;;;;;;;5.13;2.03;;;;;;;;;;4898242;29;20035;-62
2021/05/27 04:02:00;;;;;;;4.93;1.90;;;;;;;;;;4916860;29;20058;-61
2021/05/27 04:07:11;;;;;;;5.05;1.83;;;;;;;;;;4914601;29;20062;-61
2021/05/27 04:09:38;;;;;;;6.43;2.10;;;;;;;;;;4911265;29;21717;-61
2021/05/27 04:15:34;;;;;;;4.03;2.28;;;;;;;;;;4913627;29;20070;-61
2021/05/27 04:17:35;;;;;;;4.45;2.15;;;;;;;;;;4901491;29;20044;-61
2021/05/27 04:20:01;;;;;;;5.57;2.08;;;;;;;;;;4912997;29;20099;-61
2021/05/27 04:22:27;;;;;;;5.70;1.90;;;;;;;;;;4913345;29;20047;-62
2021/05/27 04:24:53;;;;;;;3.97;2.53;;;;;;;;;;4913533;29;20048;-60
2021/05/27 04:27:19;;;;;;;6.30;2.22;;;;;;;;;;4917904;29;20056;-60
2021/05/27 04:29:45;;;;;;;4.15;2.00;;;;;;;;;;4916231;29;20047;-59
2021/05/27 04:34:55;;;;;;;4.50;2.13;;;;;;;;;;4902124;29;20087;-59
2021/05/27 04:37:21;;;;;;;4.07;2.10;;;;;;;;;;4898977;29;20048;-60
2021/05/27 04:39:47;;;;;;;6.05;2.10;;;;;;;;;;4917154;29;20498;-61
2021/05/27 04:42:13;;;;;;;5.35;2.00;;;;;;;;;;4915473;29;20791;-61
2021/05/27 04:44:38;;;;;;;4.30;2.08;;;;;;;;;;4915867;29;20039;-61
2021/05/27 04:47:04;;;;;;;3.70;1.80;;;;;;;;;;4916073;29;20070;-60
2021/05/27 04:49:30;;;;;;;4.35;2.40;;;;;;;;;;4914786;29;20122;-60
2021/05/27 04:51:56;;;;;;;5.43;2.20;;;;;;;;;;4916443;29;20059;-62
2021/05/27 04:54:22;;;;;;;6.45;2.53;;;;;;;;;;4917396;29;20128;-60
2021/05/27 04:56:47;;;;;;;4.22;2.08;;;;;;;;;;4917020;29;20526;-58
2021/05/27 04:59:13;;;;;;;5.82;2.40;;;;;;;;;;4915026;29;20044;-61
2021/05/27 05:01:39;;;;;;;5.32;2.38;;;;;;;;;;4916012;29;20416;-60
2021/05/27 05:04:05;;;;;;;4.40;2.20;;;;;;;;;;4900058;29;20070;-63
2021/05/27 05:06:31;;;;;;;4.20;2.13;;;;;;;;;;4911478;29;20055;-61
2021/05/27 05:08:57;;;;;;;3.97;2.25;;;;;;;;;;4916357;29;20095;-61
2021/05/27 05:11:23;;;;;;;5.30;2.55;;;;;;;;;;4915121;29;20067;-61
2021/05/27 05:13:49;;;;;;;5.82;2.70;;;;;;;;;;4914404;29;20045;-61
2021/05/27 05:16:15;;;;;;;6.28;2.38;;;;;;;;;;4914941;29;20308;-60
2021/05/27 05:18:40;;;;;;;4.25;2.40;;;;;;;;;;4913773;29;20108;-61
2021/05/27 05:21:06;;;;;;;4.13;2.45;;;;;;;;;;4914513;29;20044;-61
2021/05/27 05:23:32;;;;;;;4.45;2.28;;;;;;;;;;4915689;29;20088;-62
2021/05/27 05:25:58;;;;;;;3.90;2.35;;;;;;;;;;4918309;29;20047;-59
2021/05/27 05:28:24;;;;;;;6.50;2.70;;;;;;;;;;4916681;29;20035;-60
2021/05/27 05:30:50;;;;;;;5.85;2.80;;;;;;;;;;4918781;29;20672;-60
2021/05/27 05:33:15;;;;;;;6.35;2.30;;;;;;;;;;4918274;29;20139;-60
2021/05/27 05:35:41;;;;;;;4.40;2.70;;;;;;;;;;4914468;29;20028;-60
2021/05/27 05:38:07;;;;;;;4.15;2.50;;;;;;;;;;4917674;29;20491;-60
2021/05/27 05:40:34;;;;;;;5.07;2.67;;;;;;;;;;4918625;29;20498;-60
2021/05/27 05:43:00;;;;;;;4.05;2.47;;;;;;;;;;4923408;29;20075;-63
2021/05/27 05:45:26;;;;;;;5.82;2.55;;;;;;;;;;4917250;29;20216;-60
2021/05/27 05:47:52;;;;;;;3.90;2.30;;;;;;;;;;4917306;29;20909;-57
2021/05/27 05:50:45;;;;;;;5.72;2.58;;;;;;;;;;4917719;29;20040;-58
2021/05/27 05:53:05;;;;;;;4.45;2.50;;;;;;;;;;4918235;29;20742;-62
2021/05/27 05:55:31;;;;;;;4.75;2.22;;;;;;;;;;4917495;29;20039;-61
2021/05/27 05:57:57;;;;;;;7.22;2.53;;;;;;;;;;4918859;29;20044;-61
2021/05/27 06:00:23;;;;;;;4.85;2.25;;;;;;;;;;4917910;29;20040;-60
2021/05/27 06:02:48;;;;;;;5.10;2.55;;;;;;;;;;4918507;29;20079;-61
2021/05/27 06:05:14;;;;;;;5.28;2.63;;;;;;;;;;4920771;29;20494;-59
2021/05/27 06:07:40;;;;;;;4.15;2.20;;;;;;;;;;4920488;29;20052;-60
2021/05/27 06:10:06;;;;;;;4.50;2.50;;;;;;;;;;4922239;29;20126;-60
2021/05/27 06:12:32;;;;;;;3.80;2.20;;;;;;;;;;4920153;29;20066;-61
2021/05/27 06:15:04;;;;;;;4.35;2.75;;;;;;;;;;4920564;29;20050;-61
2021/05/27 06:17:30;;;;;;;5.95;2.67;;;;;;;;;;4918806;29;20051;-61
2021/05/27 06:19:56;;;;;;;5.88;2.60;;;;;;;;;;4920202;29;20058;-62
2021/05/27 06:22:22;;;;;;;4.90;2.30;;;;;;;;;;4919068;29;20127;-62
2021/05/27 06:24:48;;;;;;;4.15;2.58;;;;;;;;;;4919507;29;20050;-60
2021/05/27 06:27:20;;;;;;;4.65;2.50;;;;;;;;;;4921057;29;20063;-60
2021/05/27 06:29:46;;;;;;;7.13;2.55;;;;;;;;;;4917644;29;20055;-60
2021/05/27 06:32:18;;;;;;;5.10;2.42;;;;;;;;;;4920044;29;20040;-62
2021/05/27 06:35:02;;;;;;;4.80;2.45;;;;;;;;;;4919018;29;20598;-62
2021/05/27 06:37:28;;;;;;;4.35;2.53;;;;;;;;;;4916611;29;20047;-61
2021/05/27 06:40:07;;;;;;;4.18;2.20;;;;;;;;;;4919491;29;20102;-60
2021/05/27 06:42:33;;;;;;;6.22;2.35;;;;;;;;;;4918853;29;20052;-59
2021/05/27 06:44:59;;;;;;;4.38;2.33;;;;;;;;;;4920420;29;20157;-60
2021/05/27 06:47:25;;;;;;;5.47;2.70;;;;;;;;;;4918312;29;20146;-61
2021/05/27 06:49:51;;;;;;;4.35;2.40;;;;;;;;;;4918776;29;20087;-58
2021/05/27 06:52:16;;;;;;;4.70;2.58;;;;;;;;;;4904371;29;20039;-61
2021/05/27 06:54:42;;;;;;;4.40;2.88;;;;;;;;;;4919928;28;20040;-59
2021/05/27 06:57:08;;;;;;;4.22;2.30;;;;;;;;;;4918868;29;20046;-60
2021/05/27 06:59:34;;;;;;;5.18;2.63;;;;;;;;;;4920888;29;20064;-61
2021/05/27 07:02:00;;;;;;;4.63;2.53;;;;;;;;;;4917380;29;20091;-58
2021/05/27 07:04:26;;;;;;;5.20;2.50;;;;;;;;;;4920316;29;20044;-61
2021/05/27 07:06:52;;;;;;;4.90;2.95;;;;;;;;;;4920682;29;20170;-61
2021/05/27 07:09:19;;;;;;;5.60;2.60;;;;;;;;;;4921162;29;20036;-61
2021/05/27 07:11:45;;;;;;;5.00;2.40;;;;;;;;;;4903532;29;20043;-61
2021/05/27 07:14:11;;;;;;;4.13;2.50;;;;;;;;;;4921492;29;20128;-61
2021/05/27 07:16:37;;;;;;;4.70;2.63;;;;;;;;;;4922509;29;20227;-62
2021/05/27 07:19:03;;;;;;;4.47;2.67;;;;;;;;;;4923673;29;20608;-61
2021/05/27 07:21:29;;;;;;;4.75;2.60;;;;;;;;;;4920506;29;20092;-60
2021/05/27 07:23:55;;;;;;;6.03;3.00;;;;;;;;;;4923285;29;20118;-62
2021/05/27 07:26:21;;;;;;;4.75;2.90;;;;;;;;;;4923244;29;20051;-61
2021/05/27 07:28:47;;;;;;;5.60;2.60;;;;;;;;;;4922359;29;20396;-61
2021/05/27 07:31:13;;;;;;;5.20;2.70;;;;;;;;;;4930020;29;20034;-61
2021/05/27 07:33:39;;;;;;;5.05;3.00;;;;;;;;;;4929161;29;20036;-61
2021/05/27 07:36:05;;;;;;;7.88;3.05;;;;;;;;;;4930047;29;20048;-61
2021/05/27 07:38:31;;;;;;;5.35;3.13;;;;;;;;;;4925578;29;20256;-61
2021/05/27 07:40:58;;;;;;;6.20;2.90;;;;;;;;;;4926856;29;20094;-61
2021/05/27 07:43:23;;;;;;;4.63;2.97;;;;;;;;;;4927156;29;20106;-60
2021/05/27 07:45:49;;;;;;;6.47;3.25;;;;;;;;;;4926936;29;20035;-61
2021/05/27 07:48:15;;;;;;;7.47;3.30;;;;;;;;;;4923571;29;20083;-61
2021/05/27 07:50:41;;;;;;;5.97;3.30;;;;;;;;;;4917665;29;20895;-59
2021/05/27 07:53:09;;;;;;;5.97;3.30;;;;;;;;;;4921262;29;20522;-59
2021/05/27 07:55:35;;;;;;;5.53;3.35;;;;;;;;;;4920657;29;20055;-60
2021/05/27 07:58:00;;;;;;;6.55;3.47;;;;;;;;;;4920756;29;20072;-60
2021/05/27 08:00:26;;;;;;;7.45;3.40;;;;;;;;;;4919468;29;20040;-61
2021/05/27 08:02:52;;;;;;;6.47;3.42;;;;;;;;;;4920910;29;20036;-61
2021/05/27 08:05:20;;;;;;;5.45;3.22;;;;;;;;;;4920861;29;20074;-61
2021/05/27 08:07:46;;;;;;;6.43;3.13;;;;;;;;;;4919131;29;20044;-61
2021/05/27 08:10:12;;;;;;;5.88;3.83;;;;;;;;;;4918026;29;20058;-61
2021/05/27 08:12:38;;;;;;;7.95;3.90;;;;;;;;;;4921412;29;20036;-60
2021/05/27 08:15:05;;;;;;;7.18;3.75;;;;;;;;;;4925131;29;20481;-61
2021/05/27 08:17:31;;;;;;;8.77;4.32;;;;;;;;;;4922294;29;20083;-60
2021/05/27 08:19:57;;;;;;;7.15;4.10;;;;;;;;;;4924411;29;20068;-60
2021/05/27 08:22:23;;;;;;;8.70;3.95;;;;;;;;;;4924733;29;20043;-60
2021/05/27 08:24:48;;;;;;;6.40;4.10;;;;;;;;;;4925449;29;20035;-60
2021/05/27 08:27:14;;;;;;;8.18;4.63;;;;;;;;;;4924945;29;20586;-59
2021/05/27 08:29:40;;;;;;;8.20;4.22;;;;;;;;;;4920889;29;20048;-59
2021/05/27 08:32:07;;;;;;;6.40;4.60;;;;;;;;;;4920309;29;20043;-59
2021/05/27 08:34:33;;;;;;;9.57;4.65;;;;;;;;;;4919767;29;20044;-59
2021/05/27 08:36:59;;;;;;;9.85;4.85;;;;;;;;;;4921191;29;20039;-60
2021/05/27 08:39:25;;;;;;;7.30;4.65;;;;;;;;;;4920214;29;20047;-59
2021/05/27 08:41:50;;;;;;;10.68;5.00;;;;;;;;;;4921407;29;20098;-59
2021/05/27 08:44:17;;;;;;;11.13;5.22;;;;;;;;;;4921286;29;20043;-59
2021/05/27 08:46:43;;;;;;;10.02;4.93;;;;;;;;;;4921353;29;20180;-60
2021/05/27 08:49:09;;;;;;;8.40;4.90;;;;;;;;;;4919818;29;20047;-59
2021/05/27 08:51:35;;;;;;;8.55;5.25;;;;;;;;;;4918228;29;20051;-60
2021/05/27 08:54:01;;;;;;;7.57;5.75;;;;;;;;;;4919369;29;20063;-59
2021/05/27 08:56:27;;;;;;;8.50;5.18;;;;;;;;;;4918654;29;20044;-60
2021/05/27 08:58:53;;;;;;;9.73;5.15;;;;;;;;;;4919425;29;20351;-60
2021/05/27 09:01:22;;;;;;;7.85;4.95;;;;;;;;;;4918689;29;20062;-60
2021/05/27 09:03:49;;;;;;;7.60;4.93;;;;;;;;;;4920561;29;20402;-59
2021/05/27 09:06:15;;;;;;;9.80;5.32;;;;;;;;;;4918417;29;20046;-60
2021/05/27 09:08:41;;;;;;;7.90;5.10;;;;;;;;;;4897011;29;20044;-61
2021/05/27 09:11:07;;;;;;;9.73;5.57;;;;;;;;;;4918450;29;20043;-61
2021/05/27 09:13:34;;;;;;;14.90;6.57;;;;;;;;;;4918648;29;20054;-61
2021/05/27 09:16:10;;;;;;;10.02;5.35;;;;;;;;;;4918500;29;20404;-60
2021/05/27 09:18:37;;;;;;;8.38;5.20;;;;;;;;;;4917800;29;20051;-61
2021/05/27 09:21:04;;;;;;;13.38;5.82;;;;;;;;;;4918133;29;20039;-60
2021/05/27 09:23:30;;;;;;;14.20;5.43;;;;;;;;;;4917851;29;20051;-59
2021/05/27 09:26:04;;;;;;;7.95;5.50;;;;;;;;;;4919160;29;20592;-58
2021/05/27 09:28:30;;;;;;;9.73;6.13;;;;;;;;;;4918197;29;20670;-58
2021/05/27 09:30:57;;;;;;;11.68;5.40;;;;;;;;;;4918695;29;20055;-59
2021/05/27 09:33:30;;;;;;;10.40;5.60;;;;;;;;;;4917952;29;20035;-60
2021/05/27 09:35:56;;;;;;;;;;;;;;;;;;4919691;29;20040;-60
2021/05/27 09:38:27;;;;;;;11.57;5.53;;;;;;;;;;4917975;29;19918;-59
2021/05/27 09:40:52;;;;;;;10.50;5.63;;;;;;;;;;4917435;29;20048;-60
2021/05/27 09:43:22;;;;;;;9.20;5.00;;;;;;;;;;4918414;29;20043;-60
2021/05/27 09:45:59;;;;;;;7.47;4.90;;;;;;;;;;4917568;29;20102;-61
2021/05/27 09:48:25;;;;;;;9.55;5.20;;;;;;;;;;4918268;29;20056;-58
2021/05/27 09:50:54;;;;;;;9.13;6.22;;;;;;;;;;4916902;29;20036;-61
2021/05/27 09:53:21;;;;;;;10.48;5.28;;;;;;;;;;4918517;29;20074;-60
2021/05/27 09:55:47;;;;;;;10.73;5.85;;;;;;;;;;4919236;29;20311;-61
2021/05/27 09:58:14;;;;;;;9.55;5.82;;;;;;;;;;4918550;29;20046;-61
2021/05/27 10:00:40;;;;;;;12.15;5.45;;;;;;;;;;4917340;29;20356;-60
2021/05/27 10:03:25;;;;;;;9.50;5.60;;;;;;;;;;4918969;29;20032;-59
2021/05/27 10:05:51;;;;;;;7.93;5.00;;;;;;;;;;4909648;29;20482;-60
2021/05/27 10:08:19;;;;;;;11.13;5.43;;;;;;;;;;4916964;29;20067;-59
2021/05/27 10:10:45;;;;;;;7.75;5.68;;;;;;;;;;4918942;29;20059;-59
2021/05/27 10:13:13;;;;;;;8.40;5.72;;;;;;;;;;4921309;29;20680;-59
2021/05/27 10:15:43;;;;;;;9.20;6.10;;;;;;;;;;4920247;29;20585;-60
2021/05/27 10:18:09;;;;;;;8.55;5.50;;;;;;;;;;4920112;29;20446;-60
2021/05/27 10:20:34;;;;;;;9.82;5.78;;;;;;;;;;4917686;29;20040;-61
2021/05/27 10:23:03;;;;;;;10.95;5.47;;;;;;;;;;4918195;29;20051;-60
2021/05/27 10:25:29;;;;;;;9.38;5.80;;;;;;;;;;4918349;29;20044;-61
2021/05/27 10:27:56;;;;;;;13.60;6.90;;;;;;;;;;4915923;29;20067;-61
2021/05/27 10:30:23;;;;;;;11.50;6.22;;;;;;;;;;4916093;29;20067;-61
2021/05/27 10:32:53;;;;;;;11.02;6.57;;;;;;;;;;4918261;29;20044;-60
2021/05/27 10:35:19;;;;;;;9.98;5.85;;;;;;;;;;4917129;29;20044;-59
2021/05/27 10:37:51;;;;;;;8.98;6.30;;;;;;;;;;4919612;29;20048;-60
2021/05/27 10:40:22;;;;;;;9.57;6.70;;;;;;;;;;4918794;29;20508;-58
2021/05/27 10:42:57;;;;;;;11.20;7.05;;;;;;;;;;4917824;29;20046;-59
2021/05/27 10:45:28;;;;;;;11.95;6.00;;;;;;;;;;4917814;29;20135;-59
2021/05/27 10:48:16;;;;;;;10.10;5.82;;;;;;;;;;4918201;29;20052;-58
2021/05/27 10:56:05;;;;;;;20.90;7.68;;;;;;;;;;4919917;29;20826;-62
2021/05/27 10:58:47;;;;;;;10.38;6.65;;;;;;;;;;4917220;29;20791;-60
2021/05/27 11:01:31;;;;;;;9.55;5.85;;;;;;;;;;4919971;29;20040;-60
2021/05/27 11:03:58;;;;;;;15.75;6.85;;;;;;;;;;4919151;29;20035;-60
2021/05/27 11:06:25;;;;;;;12.00;6.38;;;;;;;;;;4918456;29;20399;-61
2021/05/27 11:11:36;;;;;;;14.32;7.30;;;;;;;;;;4917639;29;20055;-60
2021/05/27 11:14:17;;;;;;;11.68;6.57;;;;;;;;;;4920638;29;20085;-62
2021/05/27 11:17:04;;;;;;;9.40;5.97;;;;;;;;;;4912646;29;20122;-60
2021/05/27 11:19:56;;;;;;;9.65;6.07;;;;;;;;;;4918945;29;20051;-58
2021/05/27 11:22:47;;;;;;;13.82;7.05;;;;;;;;;;4915980;29;20079;-57
2021/05/27 11:25:15;;;;;;;12.07;6.45;;;;;;;;;;4918669;29;20044;-60
2021/05/27 11:27:45;;;;;;;16.15;6.65;;;;;;;;;;4918235;29;20080;-59
2021/05/27 11:30:13;;;;;;;13.70;6.55;;;;;;;;;;4919164;29;20418;-59
2021/05/27 11:32:39;;;;;;;13.45;6.50;;;;;;;;;;4918581;29;20059;-57
2021/05/27 11:35:05;;;;;;;13.75;5.55;;;;;;;;;;4920664;29;20044;-60
2021/05/27 11:37:35;;;;;;;10.10;6.00;;;;;;;;;;4919826;29;20117;-60
2021/05/27 11:40:01;;;;;;;14.23;5.90;;;;;;;;;;4921026;29;20067;-61
2021/05/27 11:42:27;;;;;;;15.32;6.07;;;;;;;;;;4921035;29;20619;-60
2021/05/27 11:44:56;;;;;;;12.95;5.78;;;;;;;;;;4921794;29;20409;-59
2021/05/27 11:47:22;;;;;;;8.57;5.38;;;;;;;;;;4925830;29;20048;-60
2021/05/27 11:50:04;;;;;;;13.20;6.32;;;;;;;;;;4925374;29;20114;-60
2021/05/27 11:52:30;;;;;;;11.30;4.57;;;;;;;;;;4922839;29;20048;-58
2021/05/27 11:54:57;;;;;;;10.20;4.57;;;;;;;;;;4923979;29;20076;-59
2021/05/27 11:57:43;;;;;;;10.07;5.10;;;;;;;;;;4921635;29;20418;-59
2021/05/27 12:00:09;;;;;;;9.73;4.72;;;;;;;;;;4923292;29;20039;-60
2021/05/27 12:02:45;;;;;;;13.93;5.22;;;;;;;;;;4926944;29;20043;-61
2021/05/27 12:05:28;;;;;;;12.65;5.93;;;;;;;;;;4925990;29;20039;-60
2021/05/27 12:08:02;;;;;;;17.15;4.30;;;;;;;;;;4910687;29;20048;-61
2021/05/27 12:10:30;;;;;;;11.40;4.95;;;;;;;;;;4908572;29;20352;-61
2021/05/27 12:12:56;;;;;;;14.55;4.88;;;;;;;;;;4910855;29;20118;-59
2021/05/27 12:15:22;;;;;;;13.77;5.15;;;;;;;;;;4910990;29;20080;-61
2021/05/27 12:17:49;;;;;;;13.18;4.45;;;;;;;;;;4910739;29;20832;-60
2021/05/27 12:20:20;;;;;;;13.00;4.63;;;;;;;;;;4909413;29;20048;-62
2021/05/27 12:23:06;;;;;;;10.98;4.82;;;;;;;;;;4927649;29;20052;-61
2021/05/27 12:25:36;;;;;;;12.95;4.32;;;;;;;;;;4910229;29;20219;-62
2021/05/27 12:28:12;;;;;;;12.65;4.28;;;;;;;;;;4919700;29;20067;-62
2021/05/27 12:30:39;;;;;;;17.40;5.05;;;;;;;;;;4911988;29;20036;-61
2021/05/27 12:33:07;;;;;;;15.35;4.50;;;;;;;;;;4916108;29;20044;-61
2021/05/27 12:35:34;;;;;;;15.02;4.22;;;;;;;;;;4917185;29;20099;-62
2021/05/27 12:38:01;;;;;;;11.77;3.97;;;;;;;;;;4916674;29;20123;-64
2021/05/27 12:40:39;;;;;;;15.13;3.88;;;;;;;;;;4912362;29;20058;-62
2021/05/27 12:43:24;;;;;;;16.63;3.92;;;;;;;;;;4918696;29;20426;-63
2021/05/27 12:45:50;;;;;;;15.02;3.70;;;;;;;;;;4919552;29;20070;-63
2021/05/27 12:48:18;;;;;;;14.02;3.67;;;;;;;;;;4916876;29;20122;-64
2021/05/27 12:51:01;;;;;;;16.17;3.85;;;;;;;;;;4919557;29;20874;-64
2021/05/27 12:53:27;;;;;;;12.93;4.13;;;;;;;;;;4918453;29;20172;-64
2021/05/27 12:55:54;;;;;;;15.15;4.40;;;;;;;;;;4919750;29;20043;-61
2021/05/27 12:58:30;;;;;;;11.23;4.10;;;;;;;;;;4919501;29;20044;-61
2021/05/27 13:00:57;;;;;;;12.50;4.10;;;;;;;;;;4919041;29;20048;-61
2021/05/27 13:03:23;;;;;;;12.90;3.83;;;;;;;;;;4919017;29;20050;-63
2021/05/27 13:06:06;;;;;;;12.63;3.35;;;;;;;;;;4914624;29;20048;-64
2021/05/27 13:08:32;;;;;;;10.85;3.30;;;;;;;;;;4919143;29;20047;-62
2021/05/27 13:10:58;;;;;;;10.75;3.25;;;;;;;;;;4919714;29;20048;-62
2021/05/27 13:13:32;;;;;;;10.70;3.47;;;;;;;;;;4918016;29;20036;-63
2021/05/27 13:15:58;;;;;;;8.68;2.90;;;;;;;;;;4918335;29;20099;-62
2021/05/27 13:18:24;;;;;;;16.80;4.47;;;;;;;;;;4918545;29;20047;-62
2021/05/27 13:20:57;;;;;;;12.13;3.10;;;;;;;;;;4917381;29;20044;-64
2021/05/27 13:23:24;;;;;;;11.05;3.58;;;;;;;;;;4917991;29;20130;-63
2021/05/27 13:25:50;;;;;;;6.45;2.60;;;;;;;;;;4917169;29;20615;-63
2021/05/27 13:28:26;;;;;;;11.68;2.88;;;;;;;;;;4917493;29;20051;-64
2021/05/27 13:30:54;;;;;;;13.82;3.53;;;;;;;;;;4918619;29;20395;-62
2021/05/27 13:33:20;;;;;;;11.80;3.60;;;;;;;;;;4918746;29;20494;-62
2021/05/27 13:35:49;;;;;;;8.27;2.40;;;;;;;;;;4917759;29;20047;-62
2021/05/27 13:38:19;;;;;;;7.07;2.60;;;;;;;;;;4917979;29;20040;-63
2021/05/27 13:40:45;;;;;;;7.90;2.83;;;;;;;;;;4913583;29;20040;-62
2021/05/27 13:43:11;;;;;;;7.32;2.10;;;;;;;;;;4919016;29;20094;-62
2021/05/27 13:45:36;;;;;;;5.88;2.10;;;;;;;;;;4918377;29;20475;-62
2021/05/27 13:48:03;;;;;;;5.68;1.85;;;;;;;;;;4916692;29;20131;-63
2021/05/27 13:50:31;;;;;;;9.23;2.20;;;;;;;;;;4917923;29;20043;-63
2021/05/27 13:53:02;;;;;;;10.60;2.60;;;;;;;;;;4921314;29;20048;-63
2021/05/27 13:55:32;;;;;;;5.93;2.05;;;;;;;;;;4919993;29;20497;-63
2021/05/27 13:57:59;;;;;;;5.40;2.00;;;;;;;;;;4904302;29;20103;-62
2021/05/27 14:00:25;;;;;;;13.00;2.22;;;;;;;;;;4919664;29;20122;-64
2021/05/27 14:02:50;;;;;;;7.13;1.88;;;;;;;;;;4915213;29;20043;-62
2021/05/27 14:05:18;;;;;;;7.55;1.77;;;;;;;;;;4918392;29;20431;-63
2021/05/27 14:07:44;;;;;;;12.63;1.90;;;;;;;;;;4920363;29;20592;-63
2021/05/27 14:10:10;;;;;;;7.35;1.83;;;;;;;;;;4920336;29;20048;-63
2021/05/27 14:12:36;;;;;;;9.23;1.90;;;;;;;;;;4921371;29;20051;-62
2021/05/27 14:15:03;;;;;;;6.45;1.52;;;;;;;;;;4921270;29;20071;-63
2021/05/27 14:17:28;;;;;;;8.43;1.38;;;;;;;;;;4920431;29;20130;-62
2021/05/27 14:19:54;;;;;;;7.03;1.60;;;;;;;;;;4923701;29;20490;-63
2021/05/27 14:22:20;;;;;;;8.45;1.75;;;;;;;;;;4918932;29;20043;-62
2021/05/27 14:24:46;;;;;;;6.32;1.58;;;;;;;;;;4921267;29;20039;-64
2021/05/27 14:27:13;;;;;;;9.65;2.63;;;;;;;;;;4919503;29;20112;-61
2021/05/27 14:29:40;;;;;;;8.18;1.65;;;;;;;;;;4919355;29;20047;-62
2021/05/27 14:32:06;;;;;;;6.25;1.80;;;;;;;;;;4918883;29;20055;-63
2021/05/27 14:34:32;;;;;;;7.85;2.22;;;;;;;;;;4918541;29;20131;-63
2021/05/27 14:36:58;;;;;;;5.85;1.88;;;;;;;;;;4919885;29;20031;-62
2021/05/27 14:39:24;;;;;;;11.77;2.58;;;;;;;;;;4918940;29;20071;-62
2021/05/27 14:41:51;;;;;;;14.38;2.55;;;;;;;;;;4918269;29;20447;-61
2021/05/27 14:44:17;;;;;;;14.68;2.88;;;;;;;;;;4920341;29;20075;-61
2021/05/27 14:46:43;;;;;;;21.58;3.15;;;;;;;;;;4920299;29;20048;-62
2021/05/27 14:49:09;;;;;;;20.75;3.30;;;;;;;;;;4917038;29;20529;-63
2021/05/27 14:51:34;;;;;;;17.88;3.13;;;;;;;;;;4916235;29;20052;-63
2021/05/27 14:54:00;;;;;;;12.38;3.80;;;;;;;;;;4920238;29;20039;-63
2021/05/27 14:56:26;;;;;;;17.30;4.60;;;;;;;;;;4919663;29;20047;-61
2021/05/27 14:58:52;;;;;;;13.63;4.00;;;;;;;;;;4921294;29;20039;-61
2021/05/27 15:01:18;;;;;;;10.05;4.07;;;;;;;;;;4921883;29;20086;-62
2021/05/27 15:03:44;;;;;;;13.80;4.45;;;;;;;;;;4922819;29;20040;-64
2021/05/27 15:06:11;;;;;;;14.50;4.57;;;;;;;;;;4920402;29;20040;-62